createdAt,value
2023-03-29T00:00:16.934Z,0.76
2023-03-29T00:01:50.157Z,0.78
2023-03-29T00:03:22.104Z,0.80
2023-03-29T00:04:53.936Z,0.84
2023-03-29T00:06:31.434Z,0.83
2023-03-29T00:08:04.609Z,0.85
2023-03-29T00:09:36.742Z,0.87
2023-03-29T00:11:08.863Z,0.87
2023-03-29T00:12:42.052Z,0.89
2023-03-29T00:14:13.841Z,0.90
2023-03-29T00:15:46.860Z,0.93
2023-03-29T00:17:18.990Z,0.96
2023-03-29T00:18:50.832Z,0.97
2023-03-29T00:20:22.634Z,0.99
2023-03-29T00:21:54.433Z,1.00
2023-03-29T00:23:26.513Z,1.02
2023-03-29T00:24:58.303Z,1.05
2023-03-29T00:26:30.102Z,1.05
2023-03-29T00:28:02.036Z,1.06
2023-03-29T00:29:33.997Z,1.06
2023-03-29T00:31:08.583Z,1.07
2023-03-29T00:32:41.038Z,1.07
2023-03-29T00:34:12.850Z,1.08
2023-03-29T00:35:45.071Z,1.08
2023-03-29T00:37:20.029Z,1.05
2023-03-29T00:38:51.845Z,1.08
2023-03-29T00:40:23.649Z,1.07
2023-03-29T00:41:55.992Z,1.07
2023-03-29T00:43:27.965Z,1.05
2023-03-29T00:45:06.172Z,1.03
2023-03-29T00:46:38.073Z,1.06
2023-03-29T00:48:13.676Z,1.04
2023-03-29T00:49:46.578Z,1.05
2023-03-29T00:51:20.584Z,1.03
2023-03-29T00:53:02.645Z,0.99
2023-03-29T00:54:38.134Z,1.01
2023-03-29T00:56:14.361Z,0.98
2023-03-29T00:57:46.948Z,0.99
2023-03-29T00:59:22.706Z,0.97
2023-03-29T01:01:02.631Z,0.95
2023-03-29T01:02:35.282Z,0.95
2023-03-29T01:04:18.533Z,0.91
2023-03-29T01:05:55.143Z,0.91
2023-03-29T01:07:38.369Z,0.86
2023-03-29T01:09:13.876Z,0.85
2023-03-29T01:10:55.304Z,0.83
2023-03-29T01:12:29.546Z,0.81
2023-03-29T01:14:06.553Z,0.80
2023-03-29T01:15:44.142Z,0.78
2023-03-29T01:17:16.407Z,0.76
2023-03-29T01:18:48.715Z,0.74
2023-03-29T01:20:56.530Z,0.67
2023-03-29T01:22:38.938Z,0.71
2023-03-29T01:24:42.150Z,0.62
2023-03-29T01:28:53.226Z,0.62
2023-03-29T01:30:33.117Z,0.60
2023-03-29T01:32:09.979Z,0.59
2023-03-29T01:33:47.634Z,0.57
2023-03-29T01:35:34.323Z,0.57
2023-03-29T01:37:12.784Z,0.56
2023-03-29T01:38:59.519Z,0.53
2023-03-29T01:40:33.802Z,0.55
2023-03-29T01:42:21.772Z,0.52
2023-03-29T01:44:01.952Z,0.53
2023-03-29T01:45:41.323Z,0.52
2023-03-29T01:47:42.361Z,0.50
2023-03-29T01:49:24.876Z,0.52
2023-03-29T01:51:29.969Z,0.48
2023-03-29T01:53:11.432Z,0.50
2023-03-29T01:54:52.028Z,0.48
2023-03-29T01:56:28.360Z,0.49
2023-03-29T01:58:02.914Z,0.49
2023-03-29T01:59:38.835Z,0.50
2023-03-29T02:01:14.085Z,0.51
2023-03-29T02:02:47.960Z,0.47
2023-03-29T02:04:30.683Z,0.47
2023-03-29T02:06:03.903Z,0.52
2023-03-29T02:07:38.394Z,0.51
2023-03-29T02:09:10.186Z,0.54
2023-03-29T02:10:44.209Z,0.53
2023-03-29T02:12:17.124Z,0.56
2023-03-29T02:13:49.310Z,0.59
2023-03-29T02:15:21.726Z,0.62
2023-03-29T02:16:53.836Z,0.66
2023-03-29T02:18:26.273Z,0.71
2023-03-29T02:20:22.737Z,0.67
2023-03-29T02:22:10.476Z,0.69
2023-03-29T02:23:46.827Z,0.75
2023-03-29T02:25:19.028Z,0.76
2023-03-29T02:26:51.048Z,0.78
2023-03-29T02:28:24.672Z,0.77
2023-03-29T02:29:59.183Z,0.79
2023-03-29T02:31:50.091Z,0.77
2023-03-29T02:33:27.432Z,0.80
2023-03-29T02:35:05.206Z,0.83
2023-03-29T02:36:46.887Z,0.81
2023-03-29T02:38:20.290Z,0.85
2023-03-29T02:39:54.044Z,0.88
2023-03-29T02:41:27.521Z,0.88
2023-03-29T02:43:01.979Z,0.88
2023-03-29T02:44:40.055Z,0.89
2023-03-29T02:46:13.948Z,0.85
2023-03-29T02:47:51.871Z,0.84
2023-03-29T02:49:24.007Z,0.84
2023-03-29T02:51:01.524Z,0.83
2023-03-29T02:52:41.502Z,0.82
2023-03-29T02:54:19.959Z,0.78
2023-03-29T02:55:52.990Z,0.75
2023-03-29T02:57:28.868Z,0.74
2023-03-29T02:59:00.627Z,0.72
2023-03-29T03:00:32.538Z,0.74
2023-03-29T03:02:05.599Z,0.78
2023-03-29T03:03:37.587Z,0.76
2023-03-29T03:05:09.784Z,0.77
2023-03-29T03:06:41.796Z,0.78
2023-03-29T03:08:15.635Z,0.76
2023-03-29T03:09:47.958Z,0.79
2023-03-29T03:11:19.759Z,0.74
2023-03-29T03:12:51.961Z,0.73
2023-03-29T03:14:23.793Z,0.75
2023-03-29T03:15:56.456Z,0.76
2023-03-29T03:17:28.322Z,0.76
2023-03-29T03:19:01.117Z,0.77
2023-03-29T03:20:33.532Z,0.77
2023-03-29T03:22:06.163Z,0.75
2023-03-29T03:23:37.966Z,0.75
2023-03-29T03:25:11.532Z,0.74
2023-03-29T03:26:46.431Z,0.71
2023-03-29T03:28:19.147Z,0.70
2023-03-29T03:29:50.912Z,0.70
2023-03-29T03:31:22.872Z,0.72
2023-03-29T03:33:13.636Z,0.73
2023-03-29T03:35:06.109Z,0.68
2023-03-29T03:36:37.978Z,0.68
2023-03-29T03:38:10.987Z,0.66
2023-03-29T03:39:43.574Z,0.65
2023-03-29T03:41:16.162Z,0.60
2023-03-29T03:42:48.094Z,0.61
2023-03-29T03:44:20.190Z,0.56
2023-03-29T03:45:58.227Z,0.61
2023-03-29T03:47:31.061Z,0.59
2023-03-29T03:49:11.589Z,0.57
2023-03-29T03:50:52.958Z,0.58
2023-03-29T03:52:25.499Z,0.59
2023-03-29T03:53:57.486Z,0.62
2023-03-29T03:55:56.203Z,0.65
2023-03-29T03:57:33.365Z,0.66
2023-03-29T03:59:05.972Z,0.67
2023-03-29T04:00:51.090Z,0.65
2023-03-29T04:02:43.038Z,0.71
2023-03-29T04:04:14.997Z,0.72
2023-03-29T04:06:01.689Z,0.73
2023-03-29T04:07:41.577Z,0.70
2023-03-29T04:09:41.087Z,0.70
2023-03-29T04:11:28.548Z,0.71
2023-03-29T04:13:02.544Z,0.72
2023-03-29T04:14:35.841Z,0.71
2023-03-29T04:16:11.046Z,0.69
2023-03-29T04:17:42.952Z,0.66
2023-03-29T04:19:21.709Z,0.65
2023-03-29T04:20:54.377Z,0.66
2023-03-29T04:22:28.199Z,0.63
2023-03-29T04:24:00.083Z,0.66
2023-03-29T04:25:31.940Z,0.63
2023-03-29T04:27:03.761Z,0.65
2023-03-29T04:28:35.713Z,0.66
2023-03-29T04:30:13.397Z,0.63
2023-03-29T04:32:09.340Z,0.63
2023-03-29T04:34:00.683Z,0.59
2023-03-29T04:35:33.677Z,0.58
2023-03-29T04:37:10.736Z,0.58
2023-03-29T04:38:47.443Z,0.57
2023-03-29T04:40:21.018Z,0.56
2023-03-29T04:42:09.001Z,0.56
2023-03-29T04:43:41.563Z,0.54
2023-03-29T04:45:25.570Z,0.57
2023-03-29T04:47:13.355Z,0.56
2023-03-29T04:48:59.071Z,0.56
2023-03-29T04:50:51.296Z,0.59
2023-03-29T04:52:24.654Z,0.60
2023-03-29T04:53:57.923Z,0.61
2023-03-29T04:55:29.759Z,0.63
2023-03-29T04:57:08.573Z,0.64
2023-03-29T04:58:49.507Z,0.69
2023-03-29T05:00:27.332Z,0.70
2023-03-29T05:02:16.467Z,0.73
2023-03-29T05:03:52.634Z,0.76
2023-03-29T05:05:31.566Z,0.79
2023-03-29T05:07:06.805Z,0.83
2023-03-29T05:08:40.253Z,0.86
2023-03-29T05:10:17.586Z,0.88
2023-03-29T05:11:50.200Z,0.89
2023-03-29T05:13:22.402Z,0.92
2023-03-29T05:14:54.482Z,0.91
2023-03-29T05:16:30.442Z,0.95
2023-03-29T05:18:03.874Z,0.99
2023-03-29T05:19:36.949Z,1.00
2023-03-29T05:21:09.649Z,1.04
2023-03-29T05:22:42.665Z,1.06
2023-03-29T05:24:18.364Z,1.11
2023-03-29T05:25:59.162Z,1.13
2023-03-29T05:27:31.297Z,1.16
2023-03-29T05:29:09.153Z,1.20
2023-03-29T05:30:41.794Z,1.21
2023-03-29T05:32:21.376Z,1.23
2023-03-29T05:33:53.686Z,1.25
2023-03-29T05:35:26.439Z,1.25
2023-03-29T05:37:01.652Z,1.30
2023-03-29T05:38:40.156Z,1.34
2023-03-29T05:40:13.333Z,1.34
2023-03-29T05:42:15.777Z,1.39
2023-03-29T05:43:55.598Z,1.44
2023-03-29T05:45:30.136Z,1.48
2023-03-29T05:47:02.156Z,1.51
2023-03-29T05:48:34.059Z,1.53
2023-03-29T05:50:09.566Z,1.54
2023-03-29T05:51:42.945Z,1.58
2023-03-29T05:53:16.547Z,1.65
2023-03-29T05:54:49.214Z,1.65
2023-03-29T05:56:22.663Z,1.67
2023-03-29T05:57:54.729Z,1.71
2023-03-29T05:59:30.957Z,1.75
2023-03-29T06:01:05.731Z,1.75
2023-03-29T06:03:03.661Z,1.78
2023-03-29T06:04:41.976Z,1.83
2023-03-29T06:06:36.819Z,1.88
2023-03-29T06:08:09.115Z,1.94
2023-03-29T06:09:41.301Z,1.96
2023-03-29T06:11:15.769Z,1.98
2023-03-29T06:13:07.259Z,2.08
2023-03-29T06:14:40.374Z,2.15
2023-03-29T06:16:23.867Z,2.18
2023-03-29T06:17:56.080Z,2.26
2023-03-29T06:19:28.577Z,2.32
2023-03-29T06:21:03.144Z,2.39
2023-03-29T06:22:35.325Z,2.44
2023-03-29T06:24:07.177Z,2.50
2023-03-29T06:25:45.324Z,2.58
2023-03-29T06:27:17.803Z,2.65
2023-03-29T06:28:52.109Z,2.70
2023-03-29T06:30:24.357Z,2.75
2023-03-29T06:31:58.673Z,2.80
2023-03-29T06:33:49.685Z,2.84
2023-03-29T06:35:54.260Z,2.91
2023-03-29T06:37:32.684Z,2.97
2023-03-29T06:39:23.930Z,3.03
2023-03-29T06:41:26.455Z,3.04
2023-03-29T06:43:13.217Z,3.10
2023-03-29T06:45:08.912Z,3.19
2023-03-29T06:46:42.627Z,3.23
2023-03-29T06:48:14.479Z,3.27
2023-03-29T06:49:46.396Z,3.28
2023-03-29T06:51:34.838Z,3.30
2023-03-29T06:53:06.680Z,3.34
2023-03-29T06:54:39.628Z,3.34
2023-03-29T06:56:11.502Z,3.37
2023-03-29T06:57:48.179Z,3.42
2023-03-29T06:59:21.653Z,3.46
2023-03-29T07:01:04.881Z,3.47
2023-03-29T07:02:51.256Z,3.53
2023-03-29T07:04:24.873Z,3.59
2023-03-29T07:06:12.517Z,3.63
2023-03-29T07:08:11.931Z,3.68
2023-03-29T07:09:55.763Z,3.75
2023-03-29T07:11:31.683Z,3.82
2023-03-29T07:13:13.439Z,3.88
2023-03-29T07:14:46.745Z,3.94
2023-03-29T07:16:19.980Z,4.02
2023-03-29T07:18:12.706Z,4.12
2023-03-29T07:19:44.756Z,4.20
2023-03-29T07:21:48.929Z,4.27
2023-03-29T07:23:21.860Z,4.32
2023-03-29T07:24:55.862Z,4.38
2023-03-29T07:26:30.180Z,4.43
2023-03-29T07:28:03.839Z,4.48
2023-03-29T07:29:36.280Z,4.51
2023-03-29T07:31:11.288Z,4.56
2023-03-29T07:32:51.294Z,4.62
2023-03-29T07:34:33.522Z,4.67
2023-03-29T07:36:06.619Z,4.68
2023-03-29T07:37:43.045Z,4.69
2023-03-29T07:39:15.833Z,4.72
2023-03-29T07:40:56.393Z,4.75
2023-03-29T07:42:37.106Z,4.75
2023-03-29T07:44:09.781Z,4.78
2023-03-29T07:45:44.865Z,4.80
2023-03-29T07:47:17.970Z,4.77
2023-03-29T07:48:49.946Z,4.80
2023-03-29T07:50:21.945Z,4.76
2023-03-29T07:51:55.173Z,4.77
2023-03-29T07:53:29.849Z,4.79
2023-03-29T07:55:05.134Z,4.80
2023-03-29T07:56:52.785Z,4.82
2023-03-29T07:58:24.719Z,4.85
2023-03-29T07:59:56.981Z,4.87
2023-03-29T08:01:32.361Z,4.90
2023-03-29T08:03:20.514Z,4.95
2023-03-29T08:04:54.574Z,4.96
2023-03-29T08:06:46.228Z,5.02
2023-03-29T08:08:18.267Z,5.06
2023-03-29T08:10:03.385Z,5.13
2023-03-29T08:12:00.192Z,5.11
2023-03-29T08:13:38.964Z,5.16
2023-03-29T08:15:31.301Z,5.15
2023-03-29T08:17:03.282Z,5.18
2023-03-29T08:18:36.646Z,5.19
2023-03-29T08:20:12.229Z,5.21
2023-03-29T08:21:46.216Z,5.23
2023-03-29T08:23:18.447Z,5.26
2023-03-29T08:25:12.200Z,5.28
2023-03-29T08:26:49.094Z,5.32
2023-03-29T08:28:24.502Z,5.32
2023-03-29T08:29:57.246Z,5.35
2023-03-29T08:31:29.191Z,5.33
2023-03-29T08:33:01.808Z,5.33
2023-03-29T08:34:35.681Z,5.35
2023-03-29T08:36:20.587Z,5.37
2023-03-29T08:37:53.659Z,5.41
2023-03-29T08:39:25.557Z,5.42
2023-03-29T08:41:36.249Z,5.41
2023-03-29T08:43:18.918Z,5.42
2023-03-29T08:45:34.035Z,5.45
2023-03-29T08:47:16.614Z,5.46
2023-03-29T08:48:57.050Z,5.48
2023-03-29T08:50:44.173Z,5.47
2023-03-29T08:52:33.209Z,5.49
2023-03-29T08:54:43.664Z,5.53
2023-03-29T08:56:20.658Z,5.59
2023-03-29T08:58:07.368Z,5.64
2023-03-29T08:59:41.744Z,5.68
2023-03-29T09:01:16.564Z,5.74
2023-03-29T09:02:55.199Z,5.79
2023-03-29T09:04:31.853Z,5.85
2023-03-29T09:06:13.046Z,5.86
2023-03-29T09:07:45.417Z,5.94
2023-03-29T09:09:22.875Z,6.02
2023-03-29T09:11:11.769Z,6.06
2023-03-29T09:12:52.849Z,6.12
2023-03-29T09:14:53.750Z,6.20
2023-03-29T09:16:37.790Z,6.31
2023-03-29T09:18:32.140Z,6.36
2023-03-29T09:20:27.902Z,6.42
2023-03-29T09:22:16.239Z,6.51
2023-03-29T09:23:55.843Z,6.55
2023-03-29T09:25:57.608Z,6.59
2023-03-29T09:28:01.333Z,6.69
2023-03-29T09:29:52.586Z,6.78
2023-03-29T09:31:35.470Z,6.85
2023-03-29T09:33:24.880Z,6.91
2023-03-29T09:35:20.659Z,7.03
2023-03-29T09:36:56.898Z,7.12
2023-03-29T09:38:32.348Z,7.22
2023-03-29T09:40:12.420Z,7.33
2023-03-29T09:42:01.811Z,7.45
2023-03-29T09:43:38.035Z,7.57
2023-03-29T09:45:14.323Z,7.67
2023-03-29T09:46:56.236Z,7.76
2023-03-29T09:48:37.955Z,7.85
2023-03-29T09:50:31.354Z,7.94
2023-03-29T09:52:11.635Z,8.04
2023-03-29T09:53:44.929Z,8.12
2023-03-29T09:55:39.811Z,8.21
2023-03-29T09:57:30.734Z,8.29
2023-03-29T09:59:02.797Z,8.39
2023-03-29T10:00:35.148Z,8.49
2023-03-29T10:02:13.144Z,8.57
2023-03-29T10:03:50.804Z,8.65
2023-03-29T10:05:25.335Z,8.76
2023-03-29T10:07:00.111Z,8.87
2023-03-29T10:08:46.397Z,8.96
2023-03-29T10:10:32.515Z,9.11
2023-03-29T10:12:06.995Z,9.18
2023-03-29T10:13:46.208Z,9.27
2023-03-29T10:15:29.160Z,9.36
2023-03-29T10:17:05.770Z,9.44
2023-03-29T10:18:43.091Z,9.54
2023-03-29T10:20:20.012Z,9.60
2023-03-29T10:21:55.915Z,9.65
2023-03-29T10:23:33.583Z,9.70
2023-03-29T10:25:13.528Z,9.75
2023-03-29T10:26:45.693Z,9.84
2023-03-29T10:28:21.325Z,9.92
2023-03-29T10:29:55.896Z,9.96
2023-03-29T10:31:33.299Z,10.02
2023-03-29T10:33:07.573Z,10.10
2023-03-29T10:34:39.625Z,10.18
2023-03-29T10:36:14.158Z,10.24
2023-03-29T10:37:52.108Z,10.30
2023-03-29T10:39:27.806Z,10.34
2023-03-29T10:41:12.297Z,10.36
2023-03-29T10:42:50.158Z,10.41
2023-03-29T10:44:33.388Z,10.46
2023-03-29T10:46:09.209Z,10.49
2023-03-29T10:47:45.389Z,10.51
2023-03-29T10:49:22.157Z,10.52
2023-03-29T10:50:58.779Z,10.53
2023-03-29T10:52:30.688Z,10.56
2023-03-29T10:54:03.725Z,10.57
2023-03-29T10:55:46.530Z,10.58
2023-03-29T10:57:31.222Z,10.60
2023-03-29T10:59:14.991Z,10.63
2023-03-29T11:00:52.784Z,10.63
2023-03-29T11:02:42.666Z,10.61
2023-03-29T11:04:25.520Z,10.62
2023-03-29T11:06:14.983Z,10.58
2023-03-29T11:08:15.084Z,10.63
2023-03-29T11:10:03.792Z,10.64
2023-03-29T11:12:16.219Z,10.65
2023-03-29T11:14:13.772Z,10.67
2023-03-29T11:15:48.272Z,10.72
2023-03-29T11:17:45.023Z,10.73
2023-03-29T11:19:36.411Z,10.77
2023-03-29T11:21:26.774Z,10.82
2023-03-29T11:23:18.726Z,10.91
2023-03-29T11:25:08.323Z,10.93
2023-03-29T11:26:52.263Z,10.97
2023-03-29T11:28:34.042Z,11.01
2023-03-29T11:30:31.775Z,11.07
2023-03-29T11:32:21.307Z,11.17
2023-03-29T11:34:08.209Z,11.15
2023-03-29T11:35:47.511Z,11.16
2023-03-29T11:37:28.877Z,11.18
2023-03-29T11:39:12.072Z,11.19
2023-03-29T11:40:57.856Z,11.13
2023-03-29T11:42:33.662Z,11.15
2023-03-29T11:44:34.349Z,11.06
2023-03-29T11:46:21.956Z,11.11
2023-03-29T11:47:54.608Z,11.10
2023-03-29T11:49:37.159Z,11.07
2023-03-29T11:51:21.764Z,11.07
2023-03-29T11:52:59.317Z,11.09
2023-03-29T11:54:41.332Z,11.10
2023-03-29T11:56:19.451Z,11.10
2023-03-29T11:57:58.906Z,11.11
2023-03-29T11:59:37.953Z,11.12
2023-03-29T12:01:33.622Z,11.10
2023-03-29T12:03:19.284Z,11.18
2023-03-29T12:04:55.333Z,11.25
2023-03-29T12:06:34.263Z,11.31
2023-03-29T12:08:18.687Z,11.35
2023-03-29T12:09:55.187Z,11.45
2023-03-29T12:11:38.065Z,11.49
2023-03-29T12:13:19.239Z,11.52
2023-03-29T12:15:07.338Z,11.60
2023-03-29T12:16:52.088Z,11.64
2023-03-29T12:18:36.895Z,11.70
2023-03-29T12:20:34.456Z,11.76
2023-03-29T12:22:09.420Z,11.87
2023-03-29T12:23:47.600Z,11.91
2023-03-29T12:25:25.244Z,11.95
2023-03-29T12:27:21.674Z,11.97
2023-03-29T12:29:08.772Z,12.00
2023-03-29T12:31:08.589Z,12.03
2023-03-29T12:33:01.664Z,12.05
2023-03-29T12:34:54.526Z,12.07
2023-03-29T12:36:52.125Z,12.10
2023-03-29T12:38:44.997Z,12.19
2023-03-29T12:40:45.199Z,12.24
2023-03-29T12:43:03.579Z,12.26
2023-03-29T12:45:00.718Z,12.34
2023-03-29T12:46:37.251Z,12.40
2023-03-29T12:48:17.568Z,12.43
2023-03-29T12:49:54.679Z,12.50
2023-03-29T12:51:35.696Z,12.52
2023-03-29T12:53:25.182Z,12.56
2023-03-29T12:55:00.622Z,12.60
2023-03-29T12:56:55.426Z,12.62
2023-03-29T12:58:39.518Z,12.62
2023-03-29T13:00:26.144Z,12.59
2023-03-29T13:02:08.796Z,12.63
2023-03-29T13:03:40.532Z,12.59
2023-03-29T13:05:31.722Z,12.50
2023-03-29T13:07:04.282Z,12.51
2023-03-29T13:08:39.687Z,12.47
2023-03-29T13:10:34.412Z,12.38
2023-03-29T13:12:16.706Z,12.38
2023-03-29T13:13:50.624Z,12.38
2023-03-29T13:15:25.404Z,12.36
2023-03-29T13:17:19.579Z,12.27
2023-03-29T13:19:09.908Z,12.26
2023-03-29T13:21:03.357Z,12.17
2023-03-29T13:22:48.229Z,12.09
2023-03-29T13:24:47.850Z,12.06
2023-03-29T13:26:29.100Z,12.03
2023-03-29T13:28:33.663Z,11.93
2023-03-29T13:30:23.390Z,11.90
2023-03-29T13:32:20.101Z,11.91
2023-03-29T13:34:03.798Z,11.87
2023-03-29T13:36:04.185Z,11.78
2023-03-29T13:38:21.081Z,11.75
2023-03-29T13:39:55.113Z,11.74
2023-03-29T13:41:38.716Z,11.66
2023-03-29T13:43:22.483Z,11.61
2023-03-29T13:45:14.069Z,11.56
2023-03-29T13:46:47.396Z,11.49
2023-03-29T13:48:46.703Z,11.49
2023-03-29T13:50:29.931Z,11.47
2023-03-29T13:52:26.549Z,11.35
2023-03-29T13:54:15.245Z,11.34
2023-03-29T13:55:53.618Z,11.30
2023-03-29T13:57:35.059Z,11.32
2023-03-29T13:59:12.244Z,11.30
2023-03-29T14:00:56.541Z,11.33
2023-03-29T14:02:49.650Z,11.33
2023-03-29T14:04:26.078Z,11.36
2023-03-29T14:06:00.780Z,11.36
2023-03-29T14:07:33.950Z,11.36
2023-03-29T14:09:08.902Z,11.38
2023-03-29T14:10:43.776Z,11.42
2023-03-29T14:12:16.040Z,11.42
2023-03-29T14:13:51.887Z,11.42
2023-03-29T14:15:27.868Z,11.42
2023-03-29T14:17:00.978Z,11.43
2023-03-29T14:18:41.985Z,11.42
2023-03-29T14:20:15.169Z,11.43
2023-03-29T14:21:51.427Z,11.40
2023-03-29T14:23:25.681Z,11.43
2023-03-29T14:25:05.524Z,11.41
2023-03-29T14:26:37.516Z,11.41
2023-03-29T14:28:19.412Z,11.39
2023-03-29T14:29:52.513Z,11.39
2023-03-29T14:31:27.272Z,11.39
2023-03-29T14:32:59.345Z,11.36
2023-03-29T14:34:31.386Z,11.36
2023-03-29T14:36:04.699Z,11.36
2023-03-29T14:37:37.638Z,11.34
2023-03-29T14:39:23.558Z,11.31
2023-03-29T14:40:59.959Z,11.35
2023-03-29T14:42:31.991Z,11.38
2023-03-29T14:44:06.890Z,11.37
2023-03-29T14:45:39.011Z,11.38
2023-03-29T14:47:17.206Z,11.37
2023-03-29T14:48:49.534Z,11.39
2023-03-29T14:50:28.690Z,11.41
2023-03-29T14:52:00.704Z,11.42
2023-03-29T14:53:34.590Z,11.43
2023-03-29T14:55:07.394Z,11.45
2023-03-29T14:56:39.442Z,11.47
2023-03-29T14:58:21.651Z,11.47
2023-03-29T14:59:58.869Z,11.49
2023-03-29T15:01:31.491Z,11.51
2023-03-29T15:03:03.515Z,11.51
2023-03-29T15:04:36.293Z,11.50
2023-03-29T15:06:08.341Z,11.51
2023-03-29T15:07:43.491Z,11.49
2023-03-29T15:09:23.984Z,11.50
2023-03-29T15:10:56.180Z,11.51
2023-03-29T15:12:32.134Z,11.49
2023-03-29T15:14:08.717Z,11.51
2023-03-29T15:15:40.607Z,11.51
2023-03-29T15:17:50.112Z,11.45
2023-03-29T15:19:26.307Z,11.50
2023-03-29T15:20:59.700Z,11.48
2023-03-29T15:22:33.434Z,11.44
2023-03-29T15:24:05.954Z,11.42
2023-03-29T15:25:46.351Z,11.40
2023-03-29T15:27:19.843Z,11.36
2023-03-29T15:28:57.684Z,11.33
2023-03-29T15:30:34.958Z,11.29
2023-03-29T15:32:07.002Z,11.27
2023-03-29T15:33:41.049Z,11.25
2023-03-29T15:35:26.406Z,11.17
2023-03-29T15:36:59.461Z,11.17
2023-03-29T15:38:40.892Z,11.13
2023-03-29T15:40:16.634Z,11.10
2023-03-29T15:41:51.417Z,11.08
2023-03-29T15:43:23.813Z,11.06
2023-03-29T15:44:56.535Z,11.04
2023-03-29T15:46:28.920Z,11.04
2023-03-29T15:48:05.076Z,11.01
2023-03-29T15:49:37.005Z,11.03
2023-03-29T15:51:13.220Z,11.01
2023-03-29T15:52:45.084Z,11.03
2023-03-29T15:54:16.932Z,11.05
2023-03-29T15:55:51.820Z,11.07
2023-03-29T15:57:23.859Z,11.09
2023-03-29T15:58:56.022Z,11.13
2023-03-29T16:00:27.866Z,11.15
2023-03-29T16:01:59.880Z,11.17
2023-03-29T16:03:31.756Z,11.18
2023-03-29T16:05:03.641Z,11.19
2023-03-29T16:06:36.273Z,11.21
2023-03-29T16:08:10.782Z,11.19
2023-03-29T16:09:43.168Z,11.22
2023-03-29T16:11:14.974Z,11.26
2023-03-29T16:12:46.850Z,11.28
2023-03-29T16:14:30.034Z,11.27
2023-03-29T16:16:02.666Z,11.33
2023-03-29T16:17:34.897Z,11.36
2023-03-29T16:19:06.768Z,11.39
2023-03-29T16:20:38.617Z,11.42
2023-03-29T16:22:10.643Z,11.44
2023-03-29T16:23:43.013Z,11.46
2023-03-29T16:25:22.901Z,11.50
2023-03-29T16:26:56.290Z,11.50
2023-03-29T16:28:28.505Z,11.51
2023-03-29T16:30:00.647Z,11.53
2023-03-29T16:31:32.933Z,11.50
2023-03-29T16:33:08.754Z,11.46
2023-03-29T16:36:13.474Z,11.36
2023-03-29T16:37:45.344Z,11.31
2023-03-29T16:39:18.659Z,11.27
2023-03-29T16:40:51.146Z,11.23
2023-03-29T16:42:25.728Z,11.17
2023-03-29T16:43:58.359Z,11.11
2023-03-29T16:45:30.978Z,11.05
2023-03-29T16:47:03.018Z,11.00
2023-03-29T16:48:34.872Z,10.95
2023-03-29T16:50:08.323Z,10.90
2023-03-29T16:51:40.655Z,10.85
2023-03-29T16:53:12.510Z,10.82
2023-03-29T16:54:44.600Z,10.77
2023-03-29T16:56:16.701Z,10.74
2023-03-29T16:57:48.954Z,10.70
2023-03-29T16:59:20.876Z,10.65
2023-03-29T17:00:53.912Z,10.62
2023-03-29T17:02:26.465Z,10.60
2023-03-29T17:03:58.424Z,10.56
2023-03-29T17:05:30.662Z,10.53
2023-03-29T17:07:02.506Z,10.49
2023-03-29T17:08:34.854Z,10.45
2023-03-29T17:10:11.774Z,10.40
2023-03-29T17:11:43.873Z,10.39
2023-03-29T17:13:15.795Z,10.33
2023-03-29T17:14:48.642Z,10.31
2023-03-29T17:16:20.805Z,10.26
2023-03-29T17:17:52.747Z,10.23
2023-03-29T17:19:24.679Z,10.19
2023-03-29T17:20:58.032Z,10.14
2023-03-29T17:22:29.827Z,10.09
2023-03-29T17:24:01.933Z,10.07
2023-03-29T17:25:33.716Z,10.02
2023-03-29T17:27:06.129Z,10.01
2023-03-29T17:28:38.037Z,9.96
2023-03-29T17:30:10.266Z,9.92
2023-03-29T17:31:47.967Z,9.87
2023-03-29T17:33:26.301Z,9.82
2023-03-29T17:34:59.519Z,9.75
2023-03-29T17:36:33.903Z,9.70
2023-03-29T17:38:05.750Z,9.67
2023-03-29T17:39:37.970Z,9.62
2023-03-29T17:41:10.138Z,9.57
2023-03-29T17:42:43.074Z,9.54
2023-03-29T17:44:14.912Z,9.50
2023-03-29T17:45:50.696Z,9.46
2023-03-29T17:47:22.564Z,9.44
2023-03-29T17:48:54.520Z,9.42
2023-03-29T17:50:26.453Z,9.40
2023-03-29T17:51:58.241Z,9.36
2023-03-29T17:53:30.135Z,9.31
2023-03-29T17:55:02.048Z,9.31
2023-03-29T17:56:34.409Z,9.31
2023-03-29T17:58:06.218Z,9.27
2023-03-29T17:59:38.253Z,9.25
2023-03-29T18:01:11.662Z,9.24
2023-03-29T18:02:44.176Z,9.25
2023-03-29T18:04:16.055Z,9.22
2023-03-29T18:05:48.354Z,9.20
2023-03-29T18:07:20.191Z,9.19
2023-03-29T18:08:53.365Z,9.17
2023-03-29T18:10:25.209Z,9.13
2023-03-29T18:11:57.331Z,9.11
2023-03-29T18:13:29.298Z,9.10
2023-03-29T18:15:01.236Z,9.11
2023-03-29T18:16:33.454Z,9.08
2023-03-29T18:18:05.498Z,9.09
2023-03-29T18:19:37.589Z,9.09
2023-03-29T18:21:12.808Z,9.09
2023-03-29T18:22:44.916Z,9.09
2023-03-29T18:24:16.832Z,9.08
2023-03-29T18:25:48.702Z,9.08
2023-03-29T18:27:21.017Z,9.08
2023-03-29T18:28:53.287Z,9.06
2023-03-29T18:30:25.146Z,9.07
2023-03-29T18:31:56.995Z,9.05
2023-03-29T18:33:30.404Z,9.05
2023-03-29T18:35:03.138Z,9.05
2023-03-29T18:36:35.506Z,9.01
2023-03-29T18:38:07.955Z,8.99
2023-03-29T18:39:41.462Z,8.97
2023-03-29T18:41:14.155Z,8.97
2023-03-29T18:42:46.243Z,8.96
2023-03-29T18:44:18.440Z,8.94
2023-03-29T18:45:50.342Z,8.91
2023-03-29T18:47:22.407Z,8.89
2023-03-29T18:48:54.607Z,8.87
2023-03-29T18:50:27.272Z,8.83
2023-03-29T18:51:59.121Z,8.82
2023-03-29T18:53:31.113Z,8.78
2023-03-29T18:55:02.948Z,8.79
2023-03-29T18:56:35.664Z,8.78
2023-03-29T18:58:07.537Z,8.76
2023-03-29T18:59:39.617Z,8.75
2023-03-29T19:01:13.013Z,8.75
2023-03-29T19:02:45.101Z,8.72
2023-03-29T19:04:17.056Z,8.72
2023-03-29T19:05:55.366Z,8.73
2023-03-29T19:07:27.205Z,8.73
2023-03-29T19:09:02.149Z,8.75
2023-03-29T19:10:39.174Z,8.75
2023-03-29T19:12:11.102Z,8.77
2023-03-29T19:13:43.062Z,8.76
2023-03-29T19:15:14.954Z,8.76
2023-03-29T19:16:46.821Z,8.75
2023-03-29T19:18:18.982Z,8.74
2023-03-29T19:19:50.918Z,8.76
2023-03-29T19:21:22.836Z,8.75
2023-03-29T19:22:54.660Z,8.75
2023-03-29T19:24:26.592Z,8.75
2023-03-29T19:26:01.515Z,8.74
2023-03-29T19:27:33.773Z,8.73
2023-03-29T19:29:05.783Z,8.73
2023-03-29T19:30:37.656Z,8.71
2023-03-29T19:32:09.552Z,8.70
2023-03-29T19:33:41.428Z,8.69
2023-03-29T19:35:13.479Z,8.67
2023-03-29T19:36:45.795Z,8.63
2023-03-29T19:38:18.971Z,8.63
2023-03-29T19:39:50.876Z,8.60
2023-03-29T19:41:22.695Z,8.57
2023-03-29T19:42:54.611Z,8.54
2023-03-29T19:44:28.250Z,8.51
2023-03-29T19:46:08.087Z,8.47
2023-03-29T19:49:14.175Z,8.39
2023-03-29T19:50:46.375Z,8.35
2023-03-29T19:52:18.463Z,8.32
2023-03-29T19:53:50.586Z,8.30
2023-03-29T19:55:22.559Z,8.27
2023-03-29T19:56:57.454Z,8.23
2023-03-29T19:58:29.608Z,8.18
2023-03-29T20:00:01.651Z,8.17
2023-03-29T20:01:34.024Z,8.14
2023-03-29T20:03:10.006Z,8.15
2023-03-29T20:04:42.115Z,8.14
2023-03-29T20:06:13.941Z,8.15
2023-03-29T20:07:45.856Z,8.15
2023-03-29T20:09:17.752Z,8.15
2023-03-29T20:10:49.628Z,8.17
2023-03-29T20:12:21.531Z,8.20
2023-03-29T20:13:53.427Z,8.22
2023-03-29T20:15:26.100Z,8.22
2023-03-29T20:16:58.748Z,8.27
2023-03-29T20:18:31.008Z,8.31
2023-03-29T20:20:08.433Z,8.33
2023-03-29T20:21:40.230Z,8.38
2023-03-29T20:23:12.166Z,8.41
2023-03-29T20:24:44.074Z,8.42
2023-03-29T20:26:15.961Z,8.44
2023-03-29T20:27:49.635Z,8.44
2023-03-29T20:29:21.678Z,8.48
2023-03-29T20:30:54.089Z,8.48
2023-03-29T20:32:25.978Z,8.49
2023-03-29T20:33:57.864Z,8.52
2023-03-29T20:35:29.726Z,8.54
2023-03-29T20:37:01.619Z,8.54
2023-03-29T20:38:33.553Z,8.57
2023-03-29T20:40:08.392Z,8.58
2023-03-29T20:41:40.184Z,8.62
2023-03-29T20:43:13.730Z,8.61
2023-03-29T20:44:50.824Z,8.62
2023-03-29T20:46:24.134Z,8.64
2023-03-29T20:48:02.221Z,8.64
2023-03-29T20:49:39.386Z,8.63
2023-03-29T20:51:11.419Z,8.61
2023-03-29T20:52:43.377Z,8.64
2023-03-29T20:54:15.220Z,8.63
2023-03-29T20:55:48.135Z,8.61
2023-03-29T20:57:21.258Z,8.57
2023-03-29T20:58:55.789Z,8.56
2023-03-29T21:00:29.614Z,8.53
2023-03-29T21:02:01.687Z,8.51
2023-03-29T21:03:33.618Z,8.48
2023-03-29T21:05:05.943Z,8.46
2023-03-29T21:06:39.714Z,8.46
2023-03-29T21:08:11.559Z,8.43
2023-03-29T21:09:43.817Z,8.42
2023-03-29T21:11:16.489Z,8.39
2023-03-29T21:12:48.681Z,8.38
2023-03-29T21:14:22.393Z,8.34
2023-03-29T21:15:54.839Z,8.31
2023-03-29T21:17:27.288Z,8.29
2023-03-29T21:18:59.308Z,8.25
2023-03-29T21:20:32.484Z,8.23
2023-03-29T21:22:05.168Z,8.24
2023-03-29T21:23:37.573Z,8.22
2023-03-29T21:25:12.654Z,8.22
2023-03-29T21:26:45.004Z,8.22
2023-03-29T21:28:17.041Z,8.21
2023-03-29T21:29:49.732Z,8.20
2023-03-29T21:31:21.736Z,8.18
2023-03-29T21:32:53.647Z,8.17